sensor_id;sensor_type;location;lat;lon;timestamp;pressure;altitude;pressure_sealevel;temperature;humidity
11487;BME280;10510;47.942;9.442;2022-07-04T00:00:49;94849.97;;;18.39;100.00
11487;BME280;10510;47.942;9.442;2022-07-04T00:02:50;94848.56;;;18.37;100.00
11487;BME280;10510;47.942;9.442;2022-07-04T00:04:50;94841.69;;;18.36;100.00
11487;BME280;10510;47.942;9.442;2022-07-04T00:06:51;94840.63;;;18.37;100.00
11487;BME280;10510;47.942;9.442;2022-07-04T00:08:51;94843.97;;;18.32;100.00
11487;BME280;10510;47.942;9.442;2022-07-04T00:10:51;94844.41;;;18.29;100.00
11487;BME280;10510;47.942;9.442;2022-07-04T00:12:52;94848.88;;;18.29;100.00
11487;BME280;10510;47.942;9.442;2022-07-04T00:14:52;94841.19;;;18.27;100.00
11487;BME280;10510;47.942;9.442;2022-07-04T00:16:52;94844.03;;;18.26;100.00
11487;BME280;10510;47.942;9.442;2022-07-04T00:18:53;94837.59;;;18.22;100.00
11487;BME280;10510;47.942;9.442;2022-07-04T00:20:53;94829.53;;;18.16;100.00
11487;BME280;10510;47.942;9.442;2022-07-04T00:22:54;94830.44;;;18.10;100.00
11487;BME280;10510;47.942;9.442;2022-07-04T00:24:54;94828.25;;;18.07;100.00
11487;BME280;10510;47.942;9.442;2022-07-04T00:26:55;94812.81;;;18.04;100.00
11487;BME280;10510;47.942;9.442;2022-07-04T00:28:55;94803.16;;;17.98;100.00
11487;BME280;10510;47.942;9.442;2022-07-04T00:30:55;94809.91;;;17.94;100.00
11487;BME280;10510;47.942;9.442;2022-07-04T00:32:55;94801.28;;;17.87;100.00
11487;BME280;10510;47.942;9.442;2022-07-04T00:34:56;94793.59;;;17.85;100.00
11487;BME280;10510;47.942;9.442;2022-07-04T00:36:56;94796.88;;;17.81;100.00
11487;BME280;10510;47.942;9.442;2022-07-04T00:38:57;94799.97;;;17.78;100.00
11487;BME280;10510;47.942;9.442;2022-07-04T00:40:57;94790.63;;;17.75;100.00
11487;BME280;10510;47.942;9.442;2022-07-04T00:43:02;94788.63;;;17.70;100.00
11487;BME280;10510;47.942;9.442;2022-07-04T00:45:03;94783.00;;;17.67;100.00
11487;BME280;10510;47.942;9.442;2022-07-04T00:47:04;94793.47;;;17.62;100.00
11487;BME280;10510;47.942;9.442;2022-07-04T00:49:06;94780.66;;;17.59;100.00
11487;BME280;10510;47.942;9.442;2022-07-04T00:51:06;94780.66;;;17.59;100.00
11487;BME280;10510;47.942;9.442;2022-07-04T00:53:07;94774.00;;;17.56;100.00
11487;BME280;10510;47.942;9.442;2022-07-04T00:55:08;94771.81;;;17.53;100.00
11487;BME280;10510;47.942;9.442;2022-07-04T00:57:09;94772.03;;;17.52;100.00
11487;BME280;10510;47.942;9.442;2022-07-04T00:59:10;94782.84;;;17.50;100.00
11487;BME280;10510;47.942;9.442;2022-07-04T01:01:10;94784.88;;;17.48;100.00
11487;BME280;10510;47.942;9.442;2022-07-04T01:03:11;94779.34;;;17.49;100.00
11487;BME280;10510;47.942;9.442;2022-07-04T01:05:12;94775.91;;;17.49;100.00
11487;BME280;10510;47.942;9.442;2022-07-04T01:07:12;94779.59;;;17.48;100.00
11487;BME280;10510;47.942;9.442;2022-07-04T01:09:13;94786.47;;;17.49;100.00
11487;BME280;10510;47.942;9.442;2022-07-04T01:11:14;94778.56;;;17.49;100.00
11487;BME280;10510;47.942;9.442;2022-07-04T01:13:22;94777.75;;;17.48;100.00
11487;BME280;10510;47.942;9.442;2022-07-04T01:15:22;94781.44;;;17.47;100.00
11487;BME280;10510;47.942;9.442;2022-07-04T01:17:23;94779.59;;;17.48;100.00
11487;BME280;10510;47.942;9.442;2022-07-04T01:19:23;94783.63;;;17.51;100.00
11487;BME280;10510;47.942;9.442;2022-07-04T01:21:24;94782.59;;;17.52;100.00
11487;BME280;10510;47.942;9.442;2022-07-04T01:23:24;94776.72;;;17.49;100.00
11487;BME280;10510;47.942;9.442;2022-07-04T01:25:24;94776.94;;;17.48;100.00
11487;BME280;10510;47.942;9.442;2022-07-04T01:27:25;94787.16;;;17.44;100.00
11487;BME280;10510;47.942;9.442;2022-07-04T01:29:25;94788.97;;;17.44;100.00
11487;BME280;10510;47.942;9.442;2022-07-04T01:31:25;94799.53;;;17.44;100.00
11487;BME280;10510;47.942;9.442;2022-07-04T01:33:26;94801.97;;;17.45;100.00
11487;BME280;10510;47.942;9.442;2022-07-04T01:35:26;94792.22;;;17.46;100.00
11487;BME280;10510;47.942;9.442;2022-07-04T01:37:27;94795.44;;;17.48;100.00
11487;BME280;10510;47.942;9.442;2022-07-04T01:39:28;94789.94;;;17.49;100.00
11487;BME280;10510;47.942;9.442;2022-07-04T01:41:33;94792.56;;;17.49;100.00
11487;BME280;10510;47.942;9.442;2022-07-04T01:43:33;94787.06;;;17.51;100.00
11487;BME280;10510;47.942;9.442;2022-07-04T01:45:35;94790.31;;;17.53;100.00
11487;BME280;10510;47.942;9.442;2022-07-04T01:47:38;94785.59;;;17.55;100.00
11487;BME280;10510;47.942;9.442;2022-07-04T01:49:38;94793.50;;;17.55;100.00
11487;BME280;10510;47.942;9.442;2022-07-04T01:51:46;94789.28;;;17.54;100.00
11487;BME280;10510;47.942;9.442;2022-07-04T01:53:47;94794.56;;;17.54;100.00
11487;BME280;10510;47.942;9.442;2022-07-04T01:55:47;94806.72;;;17.55;100.00
11487;BME280;10510;47.942;9.442;2022-07-04T01:57:47;94809.59;;;17.54;100.00
11487;BME280;10510;47.942;9.442;2022-07-04T01:59:47;94807.97;;;17.53;100.00
11487;BME280;10510;47.942;9.442;2022-07-04T02:02:06;94798.69;;;17.50;100.00
11487;BME280;10510;47.942;9.442;2022-07-04T02:04:07;94810.50;;;17.47;100.00
11487;BME280;10510;47.942;9.442;2022-07-04T02:06:08;94814.16;;;17.46;100.00
11487;BME280;10510;47.942;9.442;2022-07-04T02:08:08;94834.13;;;17.42;100.00
11487;BME280;10510;47.942;9.442;2022-07-04T02:10:11;94840.88;;;17.38;100.00
11487;BME280;10510;47.942;9.442;2022-07-04T02:12:12;94844.75;;;17.36;100.00
11487;BME280;10510;47.942;9.442;2022-07-04T02:14:31;94845.78;;;17.35;100.00
11487;BME280;10510;47.942;9.442;2022-07-04T02:16:32;94852.28;;;17.32;100.00
11487;BME280;10510;47.942;9.442;2022-07-04T02:18:32;94846.44;;;17.30;100.00
11487;BME280;10510;47.942;9.442;2022-07-04T02:20:34;94833.44;;;17.29;100.00
11487;BME280;10510;47.942;9.442;2022-07-04T02:22:35;94831.63;;;17.29;100.00
11487;BME280;10510;47.942;9.442;2022-07-04T02:24:35;94834.25;;;17.29;100.00
11487;BME280;10510;47.942;9.442;2022-07-04T02:26:36;94826.13;;;17.31;100.00
11487;BME280;10510;47.942;9.442;2022-07-04T02:28:36;94828.75;;;17.31;100.00
11487;BME280;10510;47.942;9.442;2022-07-04T02:30:36;94832.22;;;17.31;100.00
11487;BME280;10510;47.942;9.442;2022-07-04T02:32:37;94836.69;;;17.31;100.00
11487;BME280;10510;47.942;9.442;2022-07-04T02:34:37;94845.84;;;17.28;100.00
11487;BME280;10510;47.942;9.442;2022-07-04T02:36:38;94841.00;;;17.25;100.00
11487;BME280;10510;47.942;9.442;2022-07-04T02:38:38;94830.88;;;17.22;100.00
11487;BME280;10510;47.942;9.442;2022-07-04T02:40:39;94838.44;;;17.18;100.00
11487;BME280;10510;47.942;9.442;2022-07-04T02:42:39;94847.81;;;17.14;100.00
11487;BME280;10510;47.942;9.442;2022-07-04T02:44:39;94853.53;;;17.11;100.00
11487;BME280;10510;47.942;9.442;2022-07-04T02:46:41;94856.63;;;17.08;100.00
11487;BME280;10510;47.942;9.442;2022-07-04T02:48:41;94854.41;;;17.05;100.00
11487;BME280;10510;47.942;9.442;2022-07-04T02:50:42;94853.59;;;17.05;100.00
11487;BME280;10510;47.942;9.442;2022-07-04T02:52:42;94863.38;;;17.04;100.00
11487;BME280;10510;47.942;9.442;2022-07-04T02:54:42;94860.13;;;17.02;100.00
11487;BME280;10510;47.942;9.442;2022-07-04T02:56:43;94863.19;;;16.99;100.00
11487;BME280;10510;47.942;9.442;2022-07-04T02:58:43;94871.56;;;16.96;100.00
11487;BME280;10510;47.942;9.442;2022-07-04T03:00:43;94876.22;;;16.94;100.00
11487;BME280;10510;47.942;9.442;2022-07-04T03:02:43;94874.44;;;16.94;100.00
11487;BME280;10510;47.942;9.442;2022-07-04T03:04:44;94887.41;;;16.96;100.00
11487;BME280;10510;47.942;9.442;2022-07-04T03:06:44;94891.06;;;16.95;100.00
11487;BME280;10510;47.942;9.442;2022-07-04T03:08:44;94891.06;;;16.95;100.00
11487;BME280;10510;47.942;9.442;2022-07-04T03:10:45;94891.06;;;16.95;100.00
11487;BME280;10510;47.942;9.442;2022-07-04T03:12:45;94893.47;;;16.96;100.00
11487;BME280;10510;47.942;9.442;2022-07-04T03:14:45;94904.84;;;16.97;100.00
11487;BME280;10510;47.942;9.442;2022-07-04T03:16:46;94909.53;;;16.95;100.00
11487;BME280;10510;47.942;9.442;2022-07-04T03:18:46;94928.22;;;16.93;100.00
11487;BME280;10510;47.942;9.442;2022-07-04T03:20:47;94943.25;;;16.93;100.00
11487;BME280;10510;47.942;9.442;2022-07-04T03:22:48;94923.59;;;16.89;100.00
11487;BME280;10510;47.942;9.442;2022-07-04T03:24:48;94912.44;;;16.87;100.00
11487;BME280;10510;47.942;9.442;2022-07-04T03:26:49;94923.00;;;16.87;100.00
11487;BME280;10510;47.942;9.442;2022-07-04T03:28:49;94933.56;;;16.87;100.00
11487;BME280;10510;47.942;9.442;2022-07-04T03:30:49;94926.28;;;16.82;100.00
11487;BME280;10510;47.942;9.442;2022-07-04T03:32:50;94928.78;;;16.77;100.00
11487;BME280;10510;47.942;9.442;2022-07-04T03:34:50;94933.41;;;16.75;100.00
11487;BME280;10510;47.942;9.442;2022-07-04T03:36:50;94930.97;;;16.73;100.00
11487;BME280;10510;47.942;9.442;2022-07-04T03:38:51;94932.00;;;16.72;100.00
11487;BME280;10510;47.942;9.442;2022-07-04T03:40:51;94929.81;;;16.69;100.00
11487;BME280;10510;47.942;9.442;2022-07-04T03:42:51;94933.25;;;16.70;100.00
11487;BME280;10510;47.942;9.442;2022-07-04T03:44:51;94929.00;;;16.69;100.00
11487;BME280;10510;47.942;9.442;2022-07-04T03:46:52;94939.19;;;16.65;100.00
11487;BME280;10510;47.942;9.442;2022-07-04T03:48:52;94948.09;;;16.64;100.00
11487;BME280;10510;47.942;9.442;2022-07-04T03:50:53;94946.91;;;16.60;100.00
11487;BME280;10510;47.942;9.442;2022-07-04T03:52:53;94950.59;;;16.52;100.00
11487;BME280;10510;47.942;9.442;2022-07-04T03:54:54;94967.66;;;16.50;100.00
11487;BME280;10510;47.942;9.442;2022-07-04T03:56:55;94969.28;;;16.51;100.00
11487;BME280;10510;47.942;9.442;2022-07-04T03:58:55;94959.53;;;16.51;100.00
11487;BME280;10510;47.942;9.442;2022-07-04T04:00:55;94965.63;;;16.52;100.00
11487;BME280;10510;47.942;9.442;2022-07-04T04:02:58;94965.63;;;16.52;100.00
11487;BME280;10510;47.942;9.442;2022-07-04T04:04:58;94960.34;;;16.52;100.00
11487;BME280;10510;47.942;9.442;2022-07-04T04:07:17;94976.19;;;16.52;100.00
11487;BME280;10510;47.942;9.442;2022-07-04T04:09:17;94978.38;;;16.55;100.00
11487;BME280;10510;47.942;9.442;2022-07-04T04:11:19;94984.28;;;16.57;100.00
11487;BME280;10510;47.942;9.442;2022-07-04T04:13:19;94984.88;;;16.59;100.00
11487;BME280;10510;47.942;9.442;2022-07-04T04:15:19;94976.97;;;16.59;100.00
11487;BME280;10510;47.942;9.442;2022-07-04T04:17:20;94972.25;;;16.61;100.00
11487;BME280;10510;47.942;9.442;2022-07-04T04:19:20;94975.72;;;16.62;100.00
11487;BME280;10510;47.942;9.442;2022-07-04T04:21:21;94972.25;;;16.61;100.00
11487;BME280;10510;47.942;9.442;2022-07-04T04:23:21;94970.44;;;16.62;100.00
11487;BME280;10510;47.942;9.442;2022-07-04T04:25:21;94977.13;;;16.64;100.00
11487;BME280;10510;47.942;9.442;2022-07-04T04:27:22;94972.44;;;16.66;100.00
11487;BME280;10510;47.942;9.442;2022-07-04T04:29:22;94967.16;;;16.66;100.00
11487;BME280;10510;47.942;9.442;2022-07-04T04:31:22;94966.97;;;16.68;100.00
11487;BME280;10510;47.942;9.442;2022-07-04T04:33:23;94968.78;;;16.67;100.00
11487;BME280;10510;47.942;9.442;2022-07-04T04:35:23;94975.69;;;16.68;100.00
11487;BME280;10510;47.942;9.442;2022-07-04T04:37:23;94978.09;;;16.70;100.00
11487;BME280;10510;47.942;9.442;2022-07-04T04:39:24;94983.19;;;16.71;100.00
11487;BME280;10510;47.942;9.442;2022-07-04T04:41:24;94980.53;;;16.71;100.00
11487;BME280;10510;47.942;9.442;2022-07-04T04:43:24;94984.19;;;16.70;100.00
11487;BME280;10510;47.942;9.442;2022-07-04T04:45:25;94984.78;;;16.72;100.00
11487;BME280;10510;47.942;9.442;2022-07-04T04:47:25;94982.94;;;16.73;100.00
11487;BME280;10510;47.942;9.442;2022-07-04T04:49:25;94985.00;;;16.77;100.00
11487;BME280;10510;47.942;9.442;2022-07-04T04:51:25;94997.16;;;16.78;100.00
11487;BME280;10510;47.942;9.442;2022-07-04T04:53:26;94975.84;;;16.80;100.00
11487;BME280;10510;47.942;9.442;2022-07-04T04:55:26;94977.25;;;16.83;100.00
11487;BME280;10510;47.942;9.442;2022-07-04T04:57:27;94977.81;;;16.85;100.00
11487;BME280;10510;47.942;9.442;2022-07-04T04:59:28;94969.09;;;16.84;100.00
11487;BME280;10510;47.942;9.442;2022-07-04T05:01:29;94967.88;;;16.87;100.00
11487;BME280;10510;47.942;9.442;2022-07-04T05:03:29;94964.81;;;16.90;100.00
11487;BME280;10510;47.942;9.442;2022-07-04T05:05:30;94972.28;;;16.93;100.00
11487;BME280;10510;47.942;9.442;2022-07-04T05:07:30;94962.53;;;16.93;100.00
11487;BME280;10510;47.942;9.442;2022-07-04T05:09:30;94970.25;;;16.95;100.00
11487;BME280;10510;47.942;9.442;2022-07-04T05:11:30;94964.56;;;16.98;100.00
11487;BME280;10510;47.942;9.442;2022-07-04T05:13:31;94969.41;;;17.01;100.00
11487;BME280;10510;47.942;9.442;2022-07-04T05:15:32;94965.28;;;17.05;100.00
11487;BME280;10510;47.942;9.442;2022-07-04T05:17:32;94961.22;;;17.09;100.00
11487;BME280;10510;47.942;9.442;2022-07-04T05:19:32;94954.47;;;17.13;100.00
11487;BME280;10510;47.942;9.442;2022-07-04T05:21:33;94954.84;;;17.17;100.00
11487;BME280;10510;47.942;9.442;2022-07-04T05:23:33;94950.97;;;17.19;100.00
11487;BME280;10510;47.942;9.442;2022-07-04T05:25:33;94961.69;;;17.24;100.00
11487;BME280;10510;47.942;9.442;2022-07-04T05:27:34;94958.19;;;17.31;100.00
11487;BME280;10510;47.942;9.442;2022-07-04T05:29:34;94960.75;;;17.37;100.00
11487;BME280;10510;47.942;9.442;2022-07-04T05:31:34;94954.41;;;17.45;100.00
11487;BME280;10510;47.942;9.442;2022-07-04T05:33:35;94949.03;;;17.52;100.00
11487;BME280;10510;47.942;9.442;2022-07-04T05:35:36;94946.31;;;17.58;100.00
11487;BME280;10510;47.942;9.442;2022-07-04T05:37:36;94950.72;;;17.64;100.00
11487;BME280;10510;47.942;9.442;2022-07-04T05:39:36;94952.13;;;17.67;100.00
11487;BME280;10510;47.942;9.442;2022-07-04T05:41:37;94963.66;;;17.73;100.00
11487;BME280;10510;47.942;9.442;2022-07-04T05:43:37;94971.78;;;17.78;100.00
11487;BME280;10510;47.942;9.442;2022-07-04T05:45:38;94977.25;;;17.76;100.00
11487;BME280;10510;47.942;9.442;2022-07-04T05:47:38;94993.09;;;17.76;100.00
11487;BME280;10510;47.942;9.442;2022-07-04T05:49:38;94999.59;;;17.80;100.00
11487;BME280;10510;47.942;9.442;2022-07-04T05:51:39;95000.41;;;17.81;100.00
11487;BME280;10510;47.942;9.442;2022-07-04T05:53:39;95015.22;;;17.82;100.00
11487;BME280;10510;47.942;9.442;2022-07-04T05:55:39;95013.41;;;17.82;100.00
11487;BME280;10510;47.942;9.442;2022-07-04T05:57:40;95014.00;;;17.84;100.00
11487;BME280;10510;47.942;9.442;2022-07-04T05:59:40;95026.41;;;17.84;100.00
11487;BME280;10510;47.942;9.442;2022-07-04T06:01:40;95030.53;;;17.80;100.00
11487;BME280;10510;47.942;9.442;2022-07-04T06:03:41;95033.78;;;17.75;100.00
11487;BME280;10510;47.942;9.442;2022-07-04T06:05:41;95045.00;;;17.70;100.00
11487;BME280;10510;47.942;9.442;2022-07-04T06:07:41;95040.53;;;17.71;100.00
11487;BME280;10510;47.942;9.442;2022-07-04T06:09:42;95045.00;;;17.70;100.00
11487;BME280;10510;47.942;9.442;2022-07-04T06:11:42;95036.06;;;17.71;100.00
11487;BME280;10510;47.942;9.442;2022-07-04T06:13:42;95043.53;;;17.75;100.00
11487;BME280;10510;47.942;9.442;2022-07-04T06:15:42;95045.56;;;17.79;100.00
11487;BME280;10510;47.942;9.442;2022-07-04T06:17:43;95040.66;;;17.83;100.00
11487;BME280;10510;47.942;9.442;2022-07-04T06:19:43;95035.75;;;17.86;100.00
11487;BME280;10510;47.942;9.442;2022-07-04T06:21:43;95036.69;;;17.92;100.00
11487;BME280;10510;47.942;9.442;2022-07-04T06:23:43;95031.19;;;17.93;100.00
11487;BME280;10510;47.942;9.442;2022-07-04T06:25:44;95022.81;;;17.97;100.00
11487;BME280;10510;47.942;9.442;2022-07-04T06:27:46;95026.84;;;17.99;100.00
11487;BME280;10510;47.942;9.442;2022-07-04T06:29:47;95023.78;;;18.02;100.00
11487;BME280;10510;47.942;9.442;2022-07-04T06:31:47;95029.22;;;18.07;100.00
11487;BME280;10510;47.942;9.442;2022-07-04T06:33:48;95029.94;;;18.14;100.00
11487;BME280;10510;47.942;9.442;2022-07-04T06:36:07;95041.03;;;18.23;100.00
11487;BME280;10510;47.942;9.442;2022-07-04T06:38:08;95022.47;;;18.30;100.00
11487;BME280;10510;47.942;9.442;2022-07-04T06:40:09;95023.19;;;18.37;100.00
11487;BME280;10510;47.942;9.442;2022-07-04T06:42:10;95033.00;;;18.48;100.00
11487;BME280;10510;47.942;9.442;2022-07-04T06:44:10;95031.88;;;18.56;100.00
11487;BME280;10510;47.942;9.442;2022-07-04T06:46:11;95041.72;;;18.67;100.00
11487;BME280;10510;47.942;9.442;2022-07-04T06:48:11;95021.06;;;18.76;100.00
11487;BME280;10510;47.942;9.442;2022-07-04T06:50:12;95014.41;;;18.85;100.00
11487;BME280;10510;47.942;9.442;2022-07-04T06:52:12;95008.47;;;18.90;100.00
11487;BME280;10510;47.942;9.442;2022-07-04T06:54:12;95001.47;;;18.95;100.00
11487;BME280;10510;47.942;9.442;2022-07-04T06:56:13;95010.09;;;19.02;100.00
11487;BME280;10510;47.942;9.442;2022-07-04T06:58:13;95016.13;;;19.10;100.00
11487;BME280;10510;47.942;9.442;2022-07-04T07:00:13;95007.25;;;19.16;100.00
11487;BME280;10510;47.942;9.442;2022-07-04T07:02:14;94996.88;;;19.14;100.00
11487;BME280;10510;47.942;9.442;2022-07-04T07:04:14;95007.72;;;19.13;100.00
11487;BME280;10510;47.942;9.442;2022-07-04T07:06:14;95006.34;;;19.10;100.00
11487;BME280;10510;47.942;9.442;2022-07-04T07:08:15;95004.28;;;19.12;100.00
11487;BME280;10510;47.942;9.442;2022-07-04T07:10:15;94985.63;;;19.19;100.00
11487;BME280;10510;47.942;9.442;2022-07-04T07:12:15;94976.50;;;19.26;100.00
11487;BME280;10510;47.942;9.442;2022-07-04T07:14:16;94980.00;;;19.27;100.00
11487;BME280;10510;47.942;9.442;2022-07-04T07:16:17;94982.97;;;19.31;100.00
11487;BME280;10510;47.942;9.442;2022-07-04T07:18:17;94977.22;;;19.34;100.00
11487;BME280;10510;47.942;9.442;2022-07-04T07:20:17;94969.16;;;19.40;100.00
11487;BME280;10510;47.942;9.442;2022-07-04T07:22:18;94958.22;;;19.48;100.00
11487;BME280;10510;47.942;9.442;2022-07-04T07:24:18;94946.22;;;19.58;100.00
11487;BME280;10510;47.942;9.442;2022-07-04T07:26:18;94941.19;;;19.68;100.00
11487;BME280;10510;47.942;9.442;2022-07-04T07:28:18;94938.38;;;19.86;100.00
11487;BME280;10510;47.942;9.442;2022-07-04T07:30:19;94942.16;;;20.02;100.00
11487;BME280;10510;47.942;9.442;2022-07-04T07:32:19;94931.41;;;20.09;100.00
11487;BME280;10510;47.942;9.442;2022-07-04T07:34:20;94934.38;;;20.24;100.00
11487;BME280;10510;47.942;9.442;2022-07-04T07:36:20;94941.56;;;20.40;100.00
11487;BME280;10510;47.942;9.442;2022-07-04T07:38:20;94937.13;;;20.58;100.00
11487;BME280;10510;47.942;9.442;2022-07-04T07:40:21;94945.38;;;20.73;100.00
11487;BME280;10510;47.942;9.442;2022-07-04T07:42:23;94935.94;;;20.94;100.00
11487;BME280;10510;47.942;9.442;2022-07-04T07:44:24;94941.97;;;21.06;100.00
11487;BME280;10510;47.942;9.442;2022-07-04T07:46:24;94939.13;;;21.13;100.00
11487;BME280;10510;47.942;9.442;2022-07-04T07:48:24;94942.09;;;21.17;100.00
11487;BME280;10510;47.942;9.442;2022-07-04T07:50:25;94928.16;;;21.26;100.00
11487;BME280;10510;47.942;9.442;2022-07-04T07:52:25;94911.16;;;21.61;100.00
11487;BME280;10510;47.942;9.442;2022-07-04T07:54:26;94911.25;;;22.10;100.00
11487;BME280;10510;47.942;9.442;2022-07-04T07:56:26;94906.47;;;22.61;100.00
11487;BME280;10510;47.942;9.442;2022-07-04T07:58:27;94904.63;;;23.21;100.00
11487;BME280;10510;47.942;9.442;2022-07-04T08:00:27;94892.09;;;23.59;100.00
11487;BME280;10510;47.942;9.442;2022-07-04T08:02:27;94884.22;;;23.85;100.00
11487;BME280;10510;47.942;9.442;2022-07-04T08:04:46;94890.50;;;24.21;100.00
11487;BME280;10510;47.942;9.442;2022-07-04T08:06:46;94891.03;;;24.18;100.00
11487;BME280;10510;47.942;9.442;2022-07-04T08:08:47;94890.81;;;24.30;100.00
11487;BME280;10510;47.942;9.442;2022-07-04T08:10:47;94894.91;;;24.68;100.00
11487;BME280;10510;47.942;9.442;2022-07-04T08:12:47;94900.03;;;25.21;100.00
11487;BME280;10510;47.942;9.442;2022-07-04T08:14:47;94889.59;;;25.45;100.00
11487;BME280;10510;47.942;9.442;2022-07-04T08:16:48;94901.78;;;25.76;100.00
11487;BME280;10510;47.942;9.442;2022-07-04T08:18:49;94904.94;;;26.09;100.00
11487;BME280;10510;47.942;9.442;2022-07-04T08:20:49;94897.28;;;26.42;100.00
11487;BME280;10510;47.942;9.442;2022-07-04T08:22:50;94906.19;;;26.77;100.00
11487;BME280;10510;47.942;9.442;2022-07-04T08:24:50;94902.56;;;26.62;100.00
11487;BME280;10510;47.942;9.442;2022-07-04T08:26:50;94894.50;;;27.02;100.00
11487;BME280;10510;47.942;9.442;2022-07-04T08:28:52;94892.16;;;27.82;100.00
11487;BME280;10510;47.942;9.442;2022-07-04T08:30:53;94897.72;;;28.15;100.00
11487;BME280;10510;47.942;9.442;2022-07-04T08:32:53;94900.09;;;28.17;100.00
11487;BME280;10510;47.942;9.442;2022-07-04T08:34:54;94905.81;;;27.62;100.00
11487;BME280;10510;47.942;9.442;2022-07-04T08:36:57;94913.69;;;27.19;100.00
11487;BME280;10510;47.942;9.442;2022-07-04T08:38:57;94902.56;;;26.96;100.00
11487;BME280;10510;47.942;9.442;2022-07-04T08:41:00;94909.16;;;26.80;100.00
11487;BME280;10510;47.942;9.442;2022-07-04T08:43:03;94910.25;;;26.74;100.00
11487;BME280;10510;47.942;9.442;2022-07-04T08:45:05;94907.91;;;26.62;100.00
11487;BME280;10510;47.942;9.442;2022-07-04T08:47:09;94904.13;;;26.68;100.00
11487;BME280;10510;47.942;9.442;2022-07-04T08:49:27;94904.69;;;26.65;100.00
11487;BME280;10510;47.942;9.442;2022-07-04T08:51:37;94907.38;;;26.00;100.00
11487;BME280;10510;47.942;9.442;2022-07-04T08:53:52;94911.50;;;25.47;100.00
11487;BME280;10510;47.942;9.442;2022-07-04T08:55:56;94909.66;;;25.47;100.00
11487;BME280;10510;47.942;9.442;2022-07-04T08:58:15;94915.75;;;25.53;100.00
11487;BME280;10510;47.942;9.442;2022-07-04T09:00:31;94921.69;;;25.34;100.00
11487;BME280;10510;47.942;9.442;2022-07-04T09:02:33;94923.00;;;25.37;100.00
11487;BME280;10510;47.942;9.442;2022-07-04T09:04:34;94924.88;;;25.47;100.00
11487;BME280;10510;47.942;9.442;2022-07-04T09:06:35;94925.41;;;25.49;100.00
11487;BME280;10510;47.942;9.442;2022-07-04T09:08:35;94930.75;;;25.44;100.00
11487;BME280;10510;47.942;9.442;2022-07-04T09:10:36;94939.84;;;25.37;100.00
11487;BME280;10510;47.942;9.442;2022-07-04T09:12:37;94932.13;;;25.31;100.00
11487;BME280;10510;47.942;9.442;2022-07-04T09:14:39;94932.38;;;25.19;100.00
11487;BME280;10510;47.942;9.442;2022-07-04T09:16:39;94928.38;;;25.22;100.00
11487;BME280;10510;47.942;9.442;2022-07-04T09:18:39;94923.56;;;25.24;100.00
11487;BME280;10510;47.942;9.442;2022-07-04T09:20:40;94912.56;;;25.10;100.00
11487;BME280;10510;47.942;9.442;2022-07-04T09:22:41;94910.69;;;24.95;100.00
11487;BME280;10510;47.942;9.442;2022-07-04T09:24:49;94895.19;;;25.02;100.00
11487;BME280;10510;47.942;9.442;2022-07-04T09:26:50;94886.66;;;25.15;100.00
11487;BME280;10510;47.942;9.442;2022-07-04T09:28:54;94881.53;;;25.55;100.00
11487;BME280;10510;47.942;9.442;2022-07-04T09:30:56;94885.44;;;25.98;100.00
11487;BME280;10510;47.942;9.442;2022-07-04T09:32:58;94883.91;;;26.37;100.00
11487;BME280;10510;47.942;9.442;2022-07-04T09:35:04;94881.78;;;26.39;100.00
11487;BME280;10510;47.942;9.442;2022-07-04T09:37:04;94880.91;;;26.48;100.00
11487;BME280;10510;47.942;9.442;2022-07-04T09:41:05;94885.59;;;26.72;100.00
11487;BME280;10510;47.942;9.442;2022-07-04T09:43:25;94892.53;;;26.78;100.00
11487;BME280;10510;47.942;9.442;2022-07-04T09:45:26;94896.81;;;26.79;100.00
11487;BME280;10510;47.942;9.442;2022-07-04T09:47:28;94893.22;;;26.55;100.00
11487;BME280;10510;47.942;9.442;2022-07-04T09:49:28;94893.00;;;26.41;100.00
11487;BME280;10510;47.942;9.442;2022-07-04T09:51:40;94894.25;;;26.59;100.00
11487;BME280;10510;47.942;9.442;2022-07-04T09:53:41;94889.25;;;26.42;100.00
11487;BME280;10510;47.942;9.442;2022-07-04T09:55:41;94884.50;;;26.23;100.00
11487;BME280;10510;47.942;9.442;2022-07-04T09:57:45;94888.03;;;26.14;100.00
11487;BME280;10510;47.942;9.442;2022-07-04T09:59:45;94892.25;;;26.30;100.00
11487;BME280;10510;47.942;9.442;2022-07-04T10:01:46;94902.28;;;26.59;100.00
11487;BME280;10510;47.942;9.442;2022-07-04T10:03:51;94897.69;;;26.64;100.00
11487;BME280;10510;47.942;9.442;2022-07-04T10:06:05;94901.50;;;26.58;100.00
11487;BME280;10510;47.942;9.442;2022-07-04T10:08:05;94897.00;;;26.54;100.00
11487;BME280;10510;47.942;9.442;2022-07-04T10:10:29;94899.91;;;26.47;100.00
11487;BME280;10510;47.942;9.442;2022-07-04T10:12:30;94896.16;;;26.53;100.00
11487;BME280;10510;47.942;9.442;2022-07-04T10:14:30;94900.00;;;26.32;100.00
11487;BME280;10510;47.942;9.442;2022-07-04T10:16:31;94898.97;;;26.27;100.00
11487;BME280;10510;47.942;9.442;2022-07-04T10:18:31;94903.31;;;26.08;100.00
11487;BME280;10510;47.942;9.442;2022-07-04T10:20:32;94901.41;;;26.24;100.00
11487;BME280;10510;47.942;9.442;2022-07-04T10:22:32;94903.84;;;26.15;100.00
11487;BME280;10510;47.942;9.442;2022-07-04T10:24:33;94912.44;;;26.07;100.00
11487;BME280;10510;47.942;9.442;2022-07-04T10:26:34;94906.25;;;26.17;100.00
11487;BME280;10510;47.942;9.442;2022-07-04T10:28:37;94906.22;;;26.27;100.00
11487;BME280;10510;47.942;9.442;2022-07-04T10:30:39;94903.25;;;26.23;100.00
11487;BME280;10510;47.942;9.442;2022-07-04T10:32:41;94902.94;;;26.35;100.00
11487;BME280;10510;47.942;9.442;2022-07-04T10:34:43;94910.19;;;26.29;100.00
11487;BME280;10510;47.942;9.442;2022-07-04T10:36:51;94911.91;;;26.10;100.00